createdAt,value
2022-08-03T00:02:34.409Z,100494.41
2022-08-03T00:05:37.635Z,100488.81
2022-08-03T00:08:40.511Z,100481.22
2022-08-03T00:11:43.625Z,100491.47
2022-08-03T00:14:46.433Z,100482.34
2022-08-03T00:17:53.408Z,100480.81
2022-08-03T00:20:56.824Z,100481.53
2022-08-03T00:23:59.975Z,100486.94
2022-08-03T00:27:02.792Z,100475.53
2022-08-03T00:30:06.788Z,100480.41
2022-08-03T00:33:10.839Z,100477.34
2022-08-03T00:36:13.939Z,100475.78
2022-08-03T00:39:18.191Z,100484.47
2022-08-03T00:42:21.382Z,100469.53
2022-08-03T00:45:35.254Z,100476.03
2022-08-03T00:48:38.358Z,100480.31
2022-08-03T00:51:41.306Z,100479.34
2022-08-03T00:54:44.443Z,100468.03
2022-08-03T00:57:48.472Z,100474.56
2022-08-03T01:00:52.025Z,100455.78
2022-08-03T01:03:54.835Z,100486.41
2022-08-03T01:07:11.227Z,100473.53
2022-08-03T01:10:17.086Z,100482.38
2022-08-03T01:14:04.663Z,100480.59
2022-08-03T01:17:49.081Z,100482.91
2022-08-03T01:20:56.582Z,100478.06
2022-08-03T01:24:50.253Z,100479.62
2022-08-03T01:28:25.133Z,100475.62
2022-08-03T01:33:00.248Z,100467.59
2022-08-03T01:35:38.838Z,100481.16
2022-08-03T01:38:47.649Z,100467.00
2022-08-03T01:41:59.413Z,100478.72
2022-08-03T01:45:05.636Z,100477.00
2022-08-03T01:48:12.363Z,100471.94
2022-08-03T01:51:18.395Z,100462.78
2022-08-03T01:54:24.944Z,100469.53
2022-08-03T01:57:30.743Z,100462.34
2022-08-03T02:00:38.726Z,100466.25
2022-08-03T02:04:00.883Z,100464.66
2022-08-03T02:07:04.514Z,100467.72
2022-08-03T02:10:09.395Z,100461.84
2022-08-03T02:13:14.311Z,100449.84
2022-08-03T02:16:19.421Z,100466.72
2022-08-03T02:19:25.083Z,100444.69
2022-08-03T02:22:29.995Z,100465.25
2022-08-03T02:25:38.994Z,100463.59
2022-08-03T02:28:45.786Z,100456.38
2022-08-03T02:31:50.767Z,100455.31
2022-08-03T02:34:58.080Z,100434.66
2022-08-03T02:38:04.093Z,100458.38
2022-08-03T02:41:12.576Z,100461.34
2022-08-03T02:44:18.583Z,100463.97
2022-08-03T02:47:23.098Z,100438.13
2022-08-03T02:50:28.305Z,100465.06
2022-08-03T02:53:33.500Z,100460.63
2022-08-03T02:56:38.308Z,100468.97
2022-08-03T02:59:44.024Z,100469.56
2022-08-03T03:02:47.989Z,100476.91
2022-08-03T03:05:56.699Z,100460.75
2022-08-03T03:09:01.604Z,100465.56
2022-08-03T03:12:08.167Z,100475.25
2022-08-03T03:15:11.169Z,100477.19
2022-08-03T03:18:18.956Z,100477.31
2022-08-03T03:21:26.170Z,100477.91
2022-08-03T03:24:30.166Z,100458.84
2022-08-03T03:27:34.215Z,100475.50
2022-08-03T03:30:37.645Z,100481.06
2022-08-03T03:33:40.658Z,100486.81
2022-08-03T03:36:43.780Z,100484.63
2022-08-03T03:39:46.688Z,100488.63
2022-08-03T03:42:50.939Z,100488.19
2022-08-03T03:45:55.859Z,100489.78
2022-08-03T03:48:59.785Z,100487.00
2022-08-03T03:52:08.878Z,100488.94
2022-08-03T03:55:18.346Z,100484.94
2022-08-03T03:58:22.052Z,100492.59
2022-08-03T04:01:28.767Z,100490.88
2022-08-03T04:04:52.095Z,100490.19
2022-08-03T04:08:15.020Z,100497.66
2022-08-03T04:11:36.828Z,100497.13
2022-08-03T04:14:41.096Z,100503.62
2022-08-03T04:17:45.158Z,100499.62
2022-08-03T04:20:50.298Z,100511.87
2022-08-03T04:23:58.797Z,100511.66
2022-08-03T04:27:05.124Z,100519.66
2022-08-03T04:30:09.604Z,100515.88
2022-08-03T04:33:12.602Z,100516.91
2022-08-03T04:36:20.560Z,100523.88
2022-08-03T04:39:32.190Z,100509.53
2022-08-03T04:42:37.760Z,100521.13
2022-08-03T04:45:41.739Z,100522.44
2022-08-03T04:48:46.307Z,100524.97
2022-08-03T04:51:50.190Z,100519.91
2022-08-03T04:54:53.384Z,100533.94
2022-08-03T04:57:57.351Z,100527.06
2022-08-03T05:01:00.704Z,100526.31
2022-08-03T05:04:04.172Z,100536.34
2022-08-03T05:07:11.741Z,100542.06
2022-08-03T05:10:17.531Z,100539.81
2022-08-03T05:13:20.664Z,100539.63
2022-08-03T05:16:25.817Z,100542.91
2022-08-03T05:19:29.123Z,100542.72
2022-08-03T05:22:31.878Z,100544.84
2022-08-03T05:25:35.104Z,100547.09
2022-08-03T05:28:38.715Z,100546.66
2022-08-03T05:31:41.857Z,100550.78
2022-08-03T05:34:44.883Z,100552.28
2022-08-03T05:37:54.474Z,100550.47
2022-08-03T05:41:22.327Z,100540.78
2022-08-03T05:44:22.182Z,100556.13
2022-08-03T05:47:24.994Z,100554.84
2022-08-03T05:50:28.214Z,100555.66
2022-08-03T05:53:34.224Z,100555.81
2022-08-03T05:56:37.412Z,100561.44
2022-08-03T05:59:40.305Z,100559.50
2022-08-03T06:02:58.058Z,100565.59
2022-08-03T06:06:01.187Z,100563.09
2022-08-03T06:09:04.107Z,100561.63
2022-08-03T06:12:10.091Z,100570.41
2022-08-03T06:15:16.633Z,100571.03
2022-08-03T06:18:20.233Z,100571.34
2022-08-03T06:21:22.983Z,100573.69
2022-08-03T06:24:26.190Z,100575.72
2022-08-03T06:27:36.447Z,100573.38
2022-08-03T06:30:41.674Z,100583.50
2022-08-03T06:34:31.477Z,100578.84
2022-08-03T06:37:07.654Z,100576.03
2022-08-03T06:40:13.987Z,100582.50
2022-08-03T06:43:17.185Z,100585.44
2022-08-03T06:46:20.786Z,100584.62
2022-08-03T06:49:23.995Z,100588.00
2022-08-03T06:52:37.557Z,100591.50
2022-08-03T06:55:42.534Z,100584.22
2022-08-03T06:58:47.053Z,100587.91
2022-08-03T07:01:50.209Z,100602.97
2022-08-03T07:04:53.060Z,100594.03
2022-08-03T07:08:01.927Z,100587.72
2022-08-03T07:11:04.784Z,100576.66
2022-08-03T07:14:07.894Z,100592.41
2022-08-03T07:17:11.668Z,100582.97
2022-08-03T07:20:17.467Z,100584.34
2022-08-03T07:23:20.255Z,100585.13
2022-08-03T07:26:23.402Z,100584.31
2022-08-03T07:29:26.270Z,100582.31
2022-08-03T07:32:31.701Z,100584.06
2022-08-03T07:35:34.774Z,100578.03
2022-08-03T07:38:38.066Z,100591.34
2022-08-03T07:41:40.875Z,100581.91
2022-08-03T07:44:45.050Z,100583.47
2022-08-03T07:47:53.408Z,100583.09
2022-08-03T07:50:57.377Z,100588.53
2022-08-03T07:54:01.014Z,100597.88
2022-08-03T07:57:04.332Z,100585.03
2022-08-03T08:00:14.090Z,100589.19
2022-08-03T08:03:17.744Z,100592.63
2022-08-03T08:06:21.748Z,100584.94
2022-08-03T08:09:25.665Z,100584.78
2022-08-03T08:12:31.900Z,100590.72
2022-08-03T08:15:34.974Z,100594.66
2022-08-03T08:18:37.820Z,100596.78
2022-08-03T08:21:53.429Z,100591.34
2022-08-03T08:25:04.515Z,100589.16
2022-08-03T08:28:29.417Z,100588.88
2022-08-03T08:31:30.463Z,100594.97
2022-08-03T08:34:33.557Z,100590.56
2022-08-03T08:37:36.540Z,100589.00
2022-08-03T08:40:40.646Z,100595.47
2022-08-03T08:43:43.804Z,100590.72
2022-08-03T08:46:48.257Z,100591.56
2022-08-03T08:50:09.397Z,100594.94
2022-08-03T08:53:17.515Z,100576.34
2022-08-03T08:56:25.768Z,100586.50
2022-08-03T08:59:47.676Z,100588.66
2022-08-03T09:02:51.473Z,100582.72
2022-08-03T09:05:56.329Z,100571.69
2022-08-03T09:08:59.366Z,100569.53
2022-08-03T09:12:28.136Z,100571.63
2022-08-03T09:15:33.706Z,100575.78
2022-08-03T09:18:36.905Z,100567.19
2022-08-03T09:21:40.553Z,100574.06
2022-08-03T09:25:21.689Z,100579.06
2022-08-03T09:28:52.861Z,100577.28
2022-08-03T09:31:46.995Z,100569.81
2022-08-03T09:34:55.316Z,100569.34
2022-08-03T09:38:15.519Z,100566.88
2022-08-03T09:41:19.414Z,100565.47
2022-08-03T09:44:35.949Z,100563.16
2022-08-03T09:47:44.842Z,100559.94
2022-08-03T09:50:58.623Z,100547.81
2022-08-03T09:54:20.316Z,100545.53
2022-08-03T09:57:25.456Z,100554.31
2022-08-03T10:00:28.793Z,100536.75
2022-08-03T10:03:36.254Z,100538.56
2022-08-03T10:07:09.949Z,100539.53
2022-08-03T10:10:31.406Z,100530.75
2022-08-03T10:13:36.357Z,100524.34
2022-08-03T10:16:40.598Z,100529.53
2022-08-03T10:19:43.420Z,100526.16
2022-08-03T10:22:47.871Z,100517.56
2022-08-03T10:25:55.984Z,100519.81
2022-08-03T10:29:01.564Z,100514.34
2022-08-03T10:32:10.692Z,100507.22
2022-08-03T10:35:20.076Z,100518.16
2022-08-03T10:38:32.830Z,100512.94
2022-08-03T10:41:40.179Z,100511.69
2022-08-03T10:44:42.984Z,100503.94
2022-08-03T10:47:48.544Z,100502.78
2022-08-03T10:50:52.643Z,100507.03
2022-08-03T10:53:55.886Z,100495.88
2022-08-03T10:57:17.363Z,100504.91
2022-08-03T11:00:27.131Z,100497.66
2022-08-03T11:03:33.495Z,100493.69
2022-08-03T11:06:37.563Z,100486.00
2022-08-03T11:09:48.851Z,100488.19
2022-08-03T11:13:05.740Z,100477.97
2022-08-03T11:16:22.006Z,100478.22
2022-08-03T11:19:57.265Z,100475.03
2022-08-03T11:23:01.839Z,100470.47
2022-08-03T11:26:16.843Z,100474.63
2022-08-03T11:29:30.656Z,100462.09
2022-08-03T11:32:48.187Z,100457.59
2022-08-03T11:36:02.268Z,100462.06
2022-08-03T11:39:16.532Z,100456.53
2022-08-03T11:42:23.158Z,100456.28
2022-08-03T11:45:26.669Z,100451.06
2022-08-03T11:48:38.631Z,100446.44
2022-08-03T11:51:41.977Z,100439.53
2022-08-03T11:54:45.198Z,100438.25
2022-08-03T11:59:16.499Z,100432.75
2022-08-03T12:01:12.606Z,100438.59
2022-08-03T12:04:16.489Z,100423.84
2022-08-03T12:08:02.649Z,100424.66
2022-08-03T12:10:50.259Z,100421.19
2022-08-03T12:14:44.208Z,100415.47
2022-08-03T12:17:16.330Z,100413.47
2022-08-03T12:20:31.483Z,100412.34
2022-08-03T12:23:39.858Z,100411.94
2022-08-03T12:26:59.187Z,100405.72
2022-08-03T12:30:05.135Z,100412.19
2022-08-03T12:33:26.361Z,100413.22
2022-08-03T12:36:32.242Z,100408.81
2022-08-03T12:39:35.068Z,100412.25
2022-08-03T12:42:40.137Z,100403.97
2022-08-03T12:45:43.082Z,100394.69
2022-08-03T12:49:04.462Z,100394.69
2022-08-03T12:52:08.931Z,100391.22
2022-08-03T12:55:20.813Z,100389.69
2022-08-03T12:58:35.250Z,100388.66
2022-08-03T13:01:38.634Z,100381.75
2022-08-03T13:04:59.517Z,100377.09
2022-08-03T13:08:02.739Z,100370.78
2022-08-03T13:11:52.502Z,100372.87
2022-08-03T13:14:51.963Z,100380.19
2022-08-03T13:17:56.436Z,100376.34
2022-08-03T13:21:00.426Z,100374.28
2022-08-03T13:24:03.407Z,100354.19
2022-08-03T13:28:03.188Z,100362.91
2022-08-03T13:30:36.154Z,100364.44
2022-08-03T13:33:40.556Z,100360.66
2022-08-03T13:37:08.097Z,100359.88
2022-08-03T13:40:08.599Z,100349.63
2022-08-03T13:43:14.578Z,100348.03
2022-08-03T13:46:17.875Z,100347.50
2022-08-03T13:49:20.685Z,100349.00
2022-08-03T13:52:23.720Z,100342.31
2022-08-03T13:55:26.603Z,100348.63
2022-08-03T13:58:29.680Z,100345.25
2022-08-03T14:01:53.988Z,100337.62
2022-08-03T14:04:55.768Z,100334.72
2022-08-03T14:07:58.601Z,100326.00
2022-08-03T14:11:08.164Z,100332.56
2022-08-03T14:14:11.975Z,100324.03
2022-08-03T14:17:16.328Z,100329.44
2022-08-03T14:20:38.458Z,100327.09
2022-08-03T14:23:42.633Z,100323.22
2022-08-03T14:26:47.518Z,100325.44
2022-08-03T14:29:50.732Z,100309.59
2022-08-03T14:32:55.951Z,100311.09
2022-08-03T14:36:02.332Z,100313.09
2022-08-03T14:39:05.825Z,100310.41
2022-08-03T14:42:09.008Z,100308.63
2022-08-03T14:45:20.129Z,100308.78
2022-08-03T14:50:32.848Z,100307.22
2022-08-03T14:51:53.381Z,100302.81
2022-08-03T14:54:57.393Z,100298.28
2022-08-03T14:58:02.997Z,100293.69
2022-08-03T15:02:02.271Z,100297.94
2022-08-03T15:04:30.394Z,100293.75
2022-08-03T15:07:33.623Z,100301.00
2022-08-03T15:10:40.450Z,100295.63
2022-08-03T15:13:52.441Z,100291.69
2022-08-03T15:16:55.316Z,100296.66
2022-08-03T15:20:04.061Z,100306.19
2022-08-03T15:23:20.095Z,100294.84
2022-08-03T15:26:33.047Z,100300.56
2022-08-03T15:30:07.398Z,100295.44
2022-08-03T15:33:02.074Z,100289.75
2022-08-03T15:36:05.097Z,100301.41
2022-08-03T15:39:08.336Z,100292.13
2022-08-03T15:42:11.168Z,100287.50
2022-08-03T15:45:14.321Z,100287.22
2022-08-03T15:48:26.516Z,100279.00
2022-08-03T15:51:30.064Z,100288.03
2022-08-03T15:54:32.880Z,100284.47
2022-08-03T15:59:11.070Z,100279.28
2022-08-03T16:01:02.352Z,100277.19
2022-08-03T16:04:05.633Z,100284.66
2022-08-03T16:07:12.590Z,100283.88
2022-08-03T16:10:17.781Z,100282.56
2022-08-03T16:13:20.620Z,100273.78
2022-08-03T16:16:23.828Z,100278.50
2022-08-03T16:19:26.660Z,100284.72
2022-08-03T16:22:29.848Z,100283.94
2022-08-03T16:25:32.908Z,100286.97
2022-08-03T16:28:38.814Z,100283.66
2022-08-03T16:31:51.143Z,100284.44
2022-08-03T16:34:54.654Z,100285.19
2022-08-03T16:37:57.982Z,100284.13
2022-08-03T16:41:01.299Z,100283.12
2022-08-03T16:44:08.030Z,100279.78
2022-08-03T16:47:21.704Z,100282.59
2022-08-03T16:50:25.439Z,100284.41
2022-08-03T16:53:33.249Z,100287.22
2022-08-03T16:56:51.600Z,100290.03
2022-08-03T16:59:55.623Z,100291.28
2022-08-03T17:03:04.034Z,100284.31
2022-08-03T17:06:08.546Z,100285.31
2022-08-03T17:09:19.171Z,100295.28
2022-08-03T17:12:26.974Z,100294.16
2022-08-03T17:15:38.342Z,100295.88
2022-08-03T17:18:57.749Z,100298.94
2022-08-03T17:22:12.123Z,100302.22
2022-08-03T17:25:22.055Z,100308.09
2022-08-03T17:28:57.172Z,100309.31
2022-08-03T17:32:11.271Z,100308.09
2022-08-03T17:35:16.029Z,100315.22
2022-08-03T17:38:25.058Z,100306.38
2022-08-03T17:41:38.069Z,100313.91
2022-08-03T17:44:54.769Z,100316.06
2022-08-03T17:47:59.099Z,100316.94
2022-08-03T17:51:27.367Z,100316.28
2022-08-03T17:58:21.010Z,100324.84
2022-08-03T18:02:30.324Z,100325.34
2022-08-03T18:06:10.366Z,100330.38
2022-08-03T18:09:00.015Z,100333.91
2022-08-03T18:12:18.649Z,100328.00
2022-08-03T18:15:49.285Z,100338.81
2022-08-03T18:18:54.815Z,100334.12
2022-08-03T18:22:03.303Z,100338.75
2022-08-03T18:25:08.287Z,100345.66
2022-08-03T18:28:14.131Z,100335.94
2022-08-03T18:31:59.455Z,100344.94
2022-08-03T18:34:53.348Z,100347.66
2022-08-03T18:37:59.001Z,100351.03
2022-08-03T18:41:07.039Z,100353.91
2022-08-03T18:44:37.484Z,100359.31
2022-08-03T18:47:52.392Z,100361.38
2022-08-03T18:51:06.798Z,100359.84
2022-08-03T18:54:53.399Z,100361.75
2022-08-03T18:57:55.572Z,100364.62
2022-08-03T19:01:59.859Z,100369.41
2022-08-03T19:04:44.274Z,100371.19
2022-08-03T19:07:59.768Z,100380.88
2022-08-03T19:11:07.945Z,100381.78
2022-08-03T19:14:17.586Z,100375.38
2022-08-03T19:17:22.767Z,100392.25
2022-08-03T19:20:35.001Z,100392.41
2022-08-03T19:23:38.530Z,100386.34
2022-08-03T19:26:43.733Z,100391.78
2022-08-03T19:29:58.384Z,100394.13
2022-08-03T19:33:16.167Z,100400.34
2022-08-03T19:36:26.265Z,100405.47
2022-08-03T19:39:31.691Z,100408.69
2022-08-03T19:42:40.944Z,100412.41
2022-08-03T19:46:05.043Z,100412.22
2022-08-03T19:49:15.839Z,100419.03
2022-08-03T19:52:24.160Z,100414.00
2022-08-03T19:55:29.974Z,100416.53
2022-08-03T19:58:35.689Z,100417.56
2022-08-03T20:01:50.969Z,100414.03
2022-08-03T20:04:55.805Z,100411.97
2022-08-03T20:08:05.256Z,100414.53
2022-08-03T20:11:10.597Z,100412.94
2022-08-03T20:14:20.732Z,100400.16
2022-08-03T20:17:54.101Z,100410.13
2022-08-03T20:20:54.672Z,100414.59
2022-08-03T20:24:23.745Z,100410.84
2022-08-03T20:27:30.824Z,100414.47
2022-08-03T20:30:34.636Z,100413.13
2022-08-03T20:37:00.686Z,100414.72
2022-08-03T20:40:06.196Z,100410.63
2022-08-03T20:43:10.081Z,100414.13
2022-08-03T20:46:38.255Z,100408.31
2022-08-03T20:49:46.171Z,100404.78
2022-08-03T20:52:50.531Z,100416.84
2022-08-03T20:56:02.651Z,100413.22
2022-08-03T20:59:07.264Z,100419.81
2022-08-03T21:02:30.173Z,100412.91
2022-08-03T21:05:51.290Z,100418.75
2022-08-03T21:09:04.229Z,100416.94
2022-08-03T21:12:12.999Z,100413.59
2022-08-03T21:13:05.102Z,100319.38
2022-08-03T21:13:13.904Z,100414.28
2022-08-03T21:16:03.144Z,100430.34
2022-08-03T21:18:51.572Z,100431.34
2022-08-03T21:21:55.821Z,100431.38
2022-08-03T21:25:04.047Z,100437.53
2022-08-03T21:28:08.050Z,100436.63
2022-08-03T21:31:11.602Z,100437.16
2022-08-03T21:34:15.365Z,100442.19
2022-08-03T21:37:18.168Z,100445.22
2022-08-03T21:40:21.658Z,100451.78
2022-08-03T21:43:24.725Z,100456.03
2022-08-03T21:46:34.031Z,100450.53
2022-08-03T21:50:04.432Z,100450.66
2022-08-03T21:53:01.013Z,100461.19
2022-08-03T21:56:08.987Z,100457.75
2022-08-03T21:59:20.053Z,100455.06
2022-08-03T22:02:31.291Z,100457.50
2022-08-03T22:05:44.022Z,100469.31
2022-08-03T22:08:48.118Z,100460.69
2022-08-03T22:11:54.275Z,100469.06
2022-08-03T22:15:00.311Z,100462.69
2022-08-03T22:18:06.347Z,100447.16
2022-08-03T22:21:15.446Z,100469.25
2022-08-03T22:24:23.980Z,100448.97
2022-08-03T22:27:31.617Z,100476.28
2022-08-03T22:30:35.258Z,100472.44
2022-08-03T22:33:38.551Z,100460.81
2022-08-03T22:36:42.486Z,100464.47
2022-08-03T22:39:45.486Z,100474.53
2022-08-03T22:42:52.579Z,100476.28
2022-08-03T22:46:10.275Z,100474.37
2022-08-03T22:49:16.717Z,100480.41
2022-08-03T22:52:20.392Z,100468.81
2022-08-03T22:55:24.957Z,100479.81
2022-08-03T22:58:27.941Z,100478.16
2022-08-03T23:01:36.836Z,100475.53
2022-08-03T23:04:42.466Z,100479.44
2022-08-03T23:07:45.800Z,100475.44
2022-08-03T23:10:51.094Z,100482.94
2022-08-03T23:13:58.930Z,100480.94
2022-08-03T23:17:05.007Z,100478.22
2022-08-03T23:20:09.202Z,100477.78
2022-08-03T23:23:12.652Z,100479.62
2022-08-03T23:26:18.003Z,100477.47
2022-08-03T23:29:22.097Z,100477.87
2022-08-03T23:32:30.677Z,100489.53
2022-08-03T23:36:28.015Z,100486.94
2022-08-03T23:39:22.639Z,100478.13
2022-08-03T23:42:26.215Z,100483.69
2022-08-03T23:45:34.839Z,100473.09
2022-08-03T23:48:37.733Z,100477.94
2022-08-03T23:52:01.958Z,100474.53
2022-08-03T23:55:25.780Z,100463.50
2022-08-03T23:58:54.566Z,100469.66
